createdAt,value
2016-03-23T00:00:07.418Z,0
2016-03-23T00:01:07.454Z,0
2016-03-23T00:02:07.471Z,0
2016-03-23T00:03:07.474Z,0
2016-03-23T00:04:07.476Z,0
2016-03-23T00:05:07.479Z,0
2016-03-23T00:06:07.497Z,0
2016-03-23T00:07:07.501Z,0
2016-03-23T00:08:07.550Z,0
2016-03-23T00:09:07.739Z,0
2016-03-23T00:10:07.570Z,0
2016-03-23T00:11:07.558Z,0
2016-03-23T00:12:07.608Z,0
2016-03-23T00:13:07.594Z,0
2016-03-23T00:14:07.597Z,0
2016-03-23T00:15:07.631Z,0
2016-03-23T00:16:07.618Z,0
2016-03-23T00:17:07.637Z,0
2016-03-23T00:18:07.671Z,0
2016-03-23T00:19:07.720Z,0
2016-03-23T00:20:07.676Z,0
2016-03-23T00:21:07.694Z,0
2016-03-23T00:22:07.713Z,0
2016-03-23T00:23:07.715Z,0
2016-03-23T00:24:07.766Z,0
2016-03-23T00:25:07.768Z,0
2016-03-23T00:26:07.771Z,0
2016-03-23T00:27:07.757Z,0
2016-03-23T00:28:07.807Z,0
2016-03-23T00:29:07.794Z,0
2016-03-23T00:30:07.862Z,0
2016-03-23T00:31:07.819Z,0
2016-03-23T00:32:07.836Z,0
2016-03-23T00:33:07.839Z,0
2016-03-23T00:34:07.888Z,0
2016-03-23T00:35:07.891Z,0
2016-03-23T00:36:07.862Z,0
2016-03-23T00:37:07.896Z,0
2016-03-23T00:38:07.899Z,0
2016-03-23T00:39:07.918Z,0
2016-03-23T00:40:07.967Z,0
2016-03-23T00:41:07.985Z,0
2016-03-23T00:42:07.957Z,0
2016-03-23T00:43:07.975Z,0
2016-03-23T00:44:07.978Z,0
2016-03-23T00:45:07.995Z,0
2016-03-23T00:46:08.030Z,0
2016-03-23T00:47:08.064Z,0
2016-03-23T00:48:08.035Z,0
2016-03-23T00:49:08.023Z,0
2016-03-23T00:50:08.056Z,0
2016-03-23T00:51:08.091Z,0
2016-03-23T00:52:08.094Z,0
2016-03-23T00:53:08.111Z,0
2016-03-23T00:54:08.099Z,0
2016-03-23T00:55:08.116Z,0
2016-03-23T00:56:08.120Z,0
2016-03-23T00:57:08.122Z,0
2016-03-23T00:58:08.155Z,0
2016-03-23T00:59:08.143Z,0
2016-03-23T01:00:08.177Z,0
2016-03-23T01:01:08.180Z,0
2016-03-23T01:02:08.230Z,0
2016-03-23T01:03:08.233Z,0
2016-03-23T01:04:08.219Z,0
2016-03-23T01:05:08.237Z,0
2016-03-23T01:06:08.240Z,0
2016-03-23T01:07:08.102Z,0
2016-03-23T01:08:08.261Z,0
2016-03-23T01:09:08.295Z,0
2016-03-23T01:10:08.312Z,0
2016-03-23T01:11:08.316Z,0
2016-03-23T01:12:08.334Z,0
2016-03-23T01:13:08.337Z,0
2016-03-23T01:14:08.340Z,0
2016-03-23T01:15:08.358Z,0
2016-03-23T01:16:08.376Z,0
2016-03-23T01:17:08.379Z,0
2016-03-23T01:18:08.398Z,0
2016-03-23T01:19:08.400Z,0
2016-03-23T01:20:08.418Z,0
2016-03-23T01:21:08.437Z,0
2016-03-23T01:22:08.455Z,0
2016-03-23T01:23:08.458Z,0
2016-03-23T01:24:08.492Z,0
2016-03-23T01:25:08.510Z,0
2016-03-23T01:26:08.497Z,0
2016-03-23T01:27:08.516Z,0
2016-03-23T01:28:08.534Z,0
2016-03-23T01:29:08.521Z,0
2016-03-23T01:30:08.554Z,0
2016-03-23T01:31:08.574Z,0
2016-03-23T01:32:08.591Z,0
2016-03-23T01:33:08.594Z,0
2016-03-23T01:34:08.582Z,0
2016-03-23T01:35:08.600Z,0
2016-03-23T01:36:08.602Z,0
2016-03-23T01:37:08.635Z,0
2016-03-23T01:38:08.623Z,0
2016-03-23T01:39:08.641Z,0
2016-03-23T01:40:08.660Z,0
2016-03-23T01:41:08.662Z,0
2016-03-23T01:42:08.696Z,0
2016-03-23T01:43:08.715Z,0
2016-03-23T01:44:08.733Z,0
2016-03-23T01:45:08.736Z,0
2016-03-23T01:46:08.739Z,0
2016-03-23T01:47:08.756Z,0
2016-03-23T01:48:08.744Z,0
2016-03-23T01:49:08.762Z,0
2016-03-23T01:50:08.780Z,0
2016-03-23T01:51:08.798Z,0
2016-03-23T01:52:08.848Z,0
2016-03-23T01:53:08.851Z,0
2016-03-23T01:54:08.838Z,0
2016-03-23T01:55:08.919Z,0
2016-03-23T01:56:08.891Z,0
2016-03-23T01:57:08.861Z,0
2016-03-23T01:58:08.911Z,0
2016-03-23T01:59:08.944Z,0
2016-03-23T02:00:08.933Z,0
2016-03-23T02:01:08.763Z,0
2016-03-23T02:02:08.937Z,0
2016-03-23T02:03:08.956Z,0
2016-03-23T02:04:08.958Z,0
2016-03-23T02:05:08.961Z,0
2016-03-23T02:06:08.980Z,0
2016-03-23T02:07:08.983Z,0
2016-03-23T02:08:08.927Z,0
2016-03-23T02:09:09.047Z,0
2016-03-23T02:10:09.048Z,0
2016-03-23T02:11:09.115Z,0
2016-03-23T02:12:09.078Z,0
2016-03-23T02:13:09.098Z,0
2016-03-23T02:14:09.053Z,0
2016-03-23T02:15:09.087Z,0
2016-03-23T02:16:09.120Z,0
2016-03-23T02:17:09.123Z,0
2016-03-23T02:18:09.126Z,0
2016-03-23T02:19:09.160Z,0
2016-03-23T02:20:09.209Z,0
2016-03-23T02:21:09.218Z,0
2016-03-23T02:22:09.190Z,0
2016-03-23T02:23:09.239Z,0
2016-03-23T02:24:09.226Z,0
2016-03-23T02:25:09.228Z,0
2016-03-23T02:26:09.264Z,0
2016-03-23T02:27:09.250Z,0
2016-03-23T02:28:09.252Z,0
2016-03-23T02:29:09.286Z,0
2016-03-23T02:30:09.336Z,0
2016-03-23T02:31:09.307Z,0
2016-03-23T02:32:09.295Z,0
2016-03-23T02:33:09.328Z,0
2016-03-23T02:34:09.331Z,0
2016-03-23T02:35:09.318Z,0
2016-03-23T02:36:09.180Z,0
2016-03-23T02:37:09.339Z,0
2016-03-23T02:38:09.357Z,0
2016-03-23T02:39:09.376Z,0
2016-03-23T02:40:09.237Z,0
2016-03-23T02:41:09.397Z,0
2016-03-23T02:42:09.446Z,0
2016-03-23T02:43:09.465Z,0
2016-03-23T02:44:09.562Z,0
2016-03-23T02:45:09.470Z,0
2016-03-23T02:46:09.504Z,0
2016-03-23T02:47:09.490Z,0
2016-03-23T02:48:09.510Z,0
2016-03-23T02:49:09.528Z,0
2016-03-23T02:50:09.531Z,0
2016-03-23T02:51:09.533Z,0
2016-03-23T02:52:09.551Z,0
2016-03-23T02:53:09.539Z,0
2016-03-23T02:54:09.572Z,0
2016-03-23T02:55:09.623Z,0
2016-03-23T02:56:09.594Z,0
2016-03-23T02:57:09.597Z,0
2016-03-23T02:58:09.631Z,0
2016-03-23T02:59:09.727Z,0
2016-03-23T03:00:09.651Z,0
2016-03-23T03:01:09.669Z,0
2016-03-23T03:02:09.688Z,0
2016-03-23T03:03:09.691Z,0
2016-03-23T03:04:09.740Z,0
2016-03-23T03:05:09.711Z,0
2016-03-23T03:06:09.730Z,0
2016-03-23T03:07:09.733Z,0
2016-03-23T03:08:09.735Z,0
2016-03-23T03:09:09.754Z,0
2016-03-23T03:10:09.819Z,0
2016-03-23T03:11:09.791Z,0
2016-03-23T03:12:09.808Z,0
2016-03-23T03:13:09.842Z,0
2016-03-23T03:14:10.032Z,0
2016-03-23T03:15:09.848Z,0
2016-03-23T03:16:09.865Z,0
2016-03-23T03:17:09.885Z,0
2016-03-23T03:18:09.887Z,0
2016-03-23T03:19:09.889Z,0
2016-03-23T03:20:09.876Z,0
2016-03-23T03:21:09.895Z,0
2016-03-23T03:22:09.929Z,0
2016-03-23T03:23:09.947Z,0
2016-03-23T03:24:09.934Z,0
2016-03-23T03:25:09.953Z,0
2016-03-23T03:26:09.970Z,0
2016-03-23T03:27:09.973Z,0
2016-03-23T03:28:09.992Z,0
2016-03-23T03:29:10.229Z,0
2016-03-23T03:30:10.028Z,0
2016-03-23T03:31:10.048Z,0
2016-03-23T03:32:10.097Z,0
2016-03-23T03:33:09.898Z,0
2016-03-23T03:34:10.056Z,0
2016-03-23T03:35:10.324Z,0
2016-03-23T03:36:10.061Z,0
2016-03-23T03:37:10.080Z,0
2016-03-23T03:38:10.098Z,0
2016-03-23T03:39:10.116Z,0
2016-03-23T03:40:10.134Z,0
2016-03-23T03:41:10.137Z,0
2016-03-23T03:42:10.155Z,0
2016-03-23T03:43:10.159Z,0
2016-03-23T03:44:10.333Z,0
2016-03-23T03:45:10.180Z,0
2016-03-23T03:46:10.197Z,0
2016-03-23T03:47:10.216Z,0
2016-03-23T03:48:10.219Z,0
2016-03-23T03:49:10.237Z,0
2016-03-23T03:50:10.255Z,0
2016-03-23T03:51:10.118Z,0
2016-03-23T03:52:10.276Z,0
2016-03-23T03:53:10.154Z,0
2016-03-23T03:54:10.297Z,0
2016-03-23T03:55:10.316Z,0
2016-03-23T03:56:10.318Z,0
2016-03-23T03:57:10.321Z,0
2016-03-23T03:58:10.324Z,0
2016-03-23T03:59:10.607Z,0
2016-03-23T04:00:10.360Z,0
2016-03-23T04:01:10.410Z,0
2016-03-23T04:02:10.397Z,0
2016-03-23T04:03:10.400Z,0
2016-03-23T04:04:10.418Z,0
2016-03-23T04:05:10.437Z,0
2016-03-23T04:06:10.501Z,0
2016-03-23T04:07:10.473Z,0
2016-03-23T04:08:10.475Z,0
2016-03-23T04:09:10.322Z,0
2016-03-23T04:10:10.497Z,0
2016-03-23T04:11:10.483Z,0
2016-03-23T04:12:10.503Z,0
2016-03-23T04:13:10.583Z,0
2016-03-23T04:14:10.430Z,0
2016-03-23T04:15:10.541Z,0
2016-03-23T04:16:10.560Z,0
2016-03-23T04:17:10.563Z,0
2016-03-23T04:18:10.580Z,0
2016-03-23T04:19:10.599Z,0
2016-03-23T04:20:10.632Z,0
2016-03-23T04:21:10.635Z,0
2016-03-23T04:22:10.638Z,0
2016-03-23T04:23:10.640Z,0
2016-03-23T04:24:10.690Z,0
2016-03-23T04:25:10.677Z,0
2016-03-23T04:26:10.726Z,0
2016-03-23T04:27:10.698Z,0
2016-03-23T04:28:10.701Z,0
2016-03-23T04:29:10.719Z,0
2016-03-23T04:30:10.737Z,0
2016-03-23T04:31:10.740Z,0
2016-03-23T04:32:10.759Z,0
2016-03-23T04:33:10.761Z,0
2016-03-23T04:34:10.811Z,0
2016-03-23T04:35:10.798Z,0
2016-03-23T04:36:10.831Z,0
2016-03-23T04:37:10.834Z,0
2016-03-23T04:38:10.822Z,0
2016-03-23T04:39:10.684Z,0
2016-03-23T04:40:10.545Z,0
2016-03-23T04:41:11.314Z,0
2016-03-23T04:42:10.880Z,0
2016-03-23T04:43:10.914Z,0
2016-03-23T04:44:10.775Z,0
2016-03-23T04:45:10.903Z,0
2016-03-23T04:46:10.922Z,0
2016-03-23T04:47:10.924Z,0
2016-03-23T04:48:10.974Z,0
2016-03-23T04:49:10.961Z,0
2016-03-23T04:50:10.995Z,0
2016-03-23T04:51:10.997Z,0
2016-03-23T04:52:11.015Z,0
2016-03-23T04:53:11.003Z,0
2016-03-23T04:54:11.021Z,0
2016-03-23T04:55:11.024Z,0
2016-03-23T04:56:11.058Z,0
2016-03-23T04:57:11.045Z,0
2016-03-23T04:58:11.094Z,0
2016-03-23T04:59:11.096Z,0
2016-03-23T05:00:11.085Z,0
2016-03-23T05:01:11.087Z,0
2016-03-23T05:02:11.121Z,0
2016-03-23T05:03:11.139Z,0
2016-03-23T05:04:11.157Z,0
2016-03-23T05:05:11.159Z,0
2016-03-23T05:06:11.163Z,0
2016-03-23T05:07:11.212Z,0
2016-03-23T05:08:11.168Z,0
2016-03-23T05:09:11.202Z,0
2016-03-23T05:10:11.205Z,0
2016-03-23T05:11:11.254Z,0
2016-03-23T05:12:11.241Z,0
2016-03-23T05:13:11.244Z,0
2016-03-23T05:14:11.277Z,0
2016-03-23T05:15:11.265Z,0
2016-03-23T05:16:11.264Z,0
2016-03-23T05:17:11.304Z,0
2016-03-23T05:18:11.296Z,0
2016-03-23T05:19:11.288Z,0
2016-03-23T05:20:11.297Z,0
2016-03-23T05:21:11.291Z,0
2016-03-23T05:22:11.306Z,0
2016-03-23T05:23:11.320Z,0
2016-03-23T05:24:11.335Z,0
2016-03-23T05:25:11.335Z,0
2016-03-23T05:26:11.382Z,0
2016-03-23T05:27:11.351Z,0
2016-03-23T05:28:11.352Z,0
2016-03-23T05:29:11.385Z,0
2016-03-23T05:30:11.386Z,0
2016-03-23T05:31:11.387Z,0
2016-03-23T05:32:11.421Z,0
2016-03-23T05:33:11.440Z,0
2016-03-23T05:34:11.426Z,0
2016-03-23T05:35:11.444Z,0
2016-03-23T05:36:11.447Z,0
2016-03-23T05:37:11.464Z,0
2016-03-23T05:38:11.467Z,0
2016-03-23T05:39:11.500Z,0
2016-03-23T05:40:11.519Z,0
2016-03-23T05:41:11.522Z,0
2016-03-23T05:42:11.524Z,0
2016-03-23T05:43:11.543Z,0
2016-03-23T05:44:11.529Z,0
2016-03-23T05:45:11.548Z,5
2016-03-23T05:46:11.566Z,5
2016-03-23T05:47:11.585Z,5
2016-03-23T05:48:11.588Z,5
2016-03-23T05:49:11.606Z,5
2016-03-23T05:50:11.609Z,5
2016-03-23T05:51:11.642Z,5
2016-03-23T05:52:11.645Z,5
2016-03-23T05:53:11.663Z,5
2016-03-23T05:54:11.682Z,5
2016-03-23T05:55:11.731Z,5
2016-03-23T05:56:11.672Z,5
2016-03-23T05:57:11.706Z,5
2016-03-23T05:58:11.709Z,5
2016-03-23T05:59:11.712Z,5
2016-03-23T06:00:11.729Z,5
2016-03-23T06:01:11.764Z,5
2016-03-23T06:02:11.766Z,5
2016-03-23T06:03:11.753Z,5
2016-03-23T06:04:11.787Z,5
2016-03-23T06:05:11.805Z,5
2016-03-23T06:06:11.823Z,5
2016-03-23T06:07:11.824Z,5
2016-03-23T06:08:12.145Z,5
2016-03-23T06:09:11.835Z,5
2016-03-23T06:10:11.870Z,5
2016-03-23T06:11:11.873Z,10
2016-03-23T06:12:11.953Z,10
2016-03-23T06:13:11.893Z,10
2016-03-23T06:14:11.912Z,10
2016-03-23T06:15:11.929Z,10
2016-03-23T06:16:11.932Z,10
2016-03-23T06:17:11.919Z,10
2016-03-23T06:18:11.953Z,10
2016-03-23T06:19:11.956Z,10
2016-03-23T06:20:11.975Z,10
2016-03-23T06:21:12.009Z,15
2016-03-23T06:22:11.995Z,15
2016-03-23T06:23:12.014Z,15
2016-03-23T06:24:12.032Z,15
2016-03-23T06:25:12.050Z,15
2016-03-23T06:26:12.069Z,15
2016-03-23T06:27:12.119Z,15
2016-03-23T06:28:12.074Z,15
2016-03-23T06:29:12.092Z,15
2016-03-23T06:30:12.110Z,15
2016-03-23T06:31:12.097Z,15
2016-03-23T06:32:12.116Z,15
2016-03-23T06:33:12.135Z,20
2016-03-23T06:34:12.153Z,20
2016-03-23T06:35:12.155Z,20
2016-03-23T06:36:12.190Z,20
2016-03-23T06:37:12.207Z,20
2016-03-23T06:38:12.195Z,20
2016-03-23T06:39:12.213Z,20
2016-03-23T06:40:12.200Z,20
2016-03-23T06:41:12.234Z,20
2016-03-23T06:42:12.251Z,20
2016-03-23T06:43:12.254Z,25
2016-03-23T06:44:12.257Z,25
2016-03-23T06:45:12.276Z,25
2016-03-23T06:46:12.279Z,25
2016-03-23T06:47:12.140Z,25
2016-03-23T06:48:12.315Z,25
2016-03-23T06:49:12.333Z,25
2016-03-23T06:50:12.352Z,25
2016-03-23T06:51:12.370Z,25
2016-03-23T06:52:12.403Z,25
2016-03-23T06:53:12.391Z,25
2016-03-23T06:54:12.394Z,25
2016-03-23T06:55:12.428Z,25
2016-03-23T06:56:12.431Z,25
2016-03-23T06:57:12.418Z,20
2016-03-23T06:58:12.483Z,20
2016-03-23T06:59:12.455Z,20
2016-03-23T07:00:12.458Z,20
2016-03-23T07:01:12.475Z,20
2016-03-23T07:02:12.572Z,20
2016-03-23T07:03:12.513Z,20
2016-03-23T07:04:12.546Z,15
2016-03-23T07:05:12.549Z,15
2016-03-23T07:06:12.535Z,15
2016-03-23T07:07:12.569Z,15
2016-03-23T07:08:12.571Z,15
2016-03-23T07:09:12.560Z,15
2016-03-23T07:10:12.577Z,15
2016-03-23T07:11:12.612Z,15
2016-03-23T07:12:12.630Z,15
2016-03-23T07:13:12.664Z,10
2016-03-23T07:14:12.713Z,10
2016-03-23T07:15:12.669Z,10
2016-03-23T07:16:12.672Z,10
2016-03-23T07:17:12.581Z,10
2016-03-23T07:18:12.692Z,15
2016-03-23T07:19:12.695Z,15
2016-03-23T07:20:12.729Z,15
2016-03-23T07:21:12.731Z,15
2016-03-23T07:22:12.750Z,15
2016-03-23T07:23:12.753Z,15
2016-03-23T07:24:12.772Z,15
2016-03-23T07:25:12.790Z,15
2016-03-23T07:26:12.839Z,15
2016-03-23T07:27:12.811Z,15
2016-03-23T07:28:12.813Z,15
2016-03-23T07:29:12.832Z,15
2016-03-23T07:30:12.835Z,15
2016-03-23T07:31:12.853Z,15
2016-03-23T07:32:12.855Z,15
2016-03-23T07:33:12.718Z,15
2016-03-23T07:34:12.908Z,15
2016-03-23T07:35:12.957Z,15
2016-03-23T07:36:12.929Z,15
2016-03-23T07:37:12.932Z,15
2016-03-23T07:38:12.949Z,15
2016-03-23T07:39:12.968Z,10
2016-03-23T07:40:12.986Z,10
2016-03-23T07:41:13.004Z,10
2016-03-23T07:42:13.007Z,10
2016-03-23T07:43:13.009Z,10
2016-03-23T07:44:13.013Z,10
2016-03-23T07:45:13.046Z,10
2016-03-23T07:46:13.049Z,15
2016-03-23T07:47:13.052Z,15
2016-03-23T07:48:13.086Z,15
2016-03-23T07:49:13.089Z,15
2016-03-23T07:50:13.092Z,15
2016-03-23T07:51:13.109Z,15
2016-03-23T07:52:13.128Z,15
2016-03-23T07:53:13.146Z,15
2016-03-23T07:54:13.164Z,15
2016-03-23T07:55:13.152Z,15
2016-03-23T07:56:13.169Z,15
2016-03-23T07:57:13.173Z,15
2016-03-23T07:58:13.206Z,15
2016-03-23T07:59:13.209Z,15
2016-03-23T08:00:13.211Z,15
2016-03-23T08:01:13.246Z,15
2016-03-23T08:02:13.249Z,15
2016-03-23T08:03:13.283Z,15
2016-03-23T08:04:13.286Z,15
2016-03-23T08:05:13.272Z,15
2016-03-23T08:06:13.291Z,15
2016-03-23T08:07:13.309Z,15
2016-03-23T08:08:13.327Z,15
2016-03-23T08:09:13.330Z,15
2016-03-23T08:10:13.348Z,15
2016-03-23T08:11:13.351Z,15
2016-03-23T08:12:13.368Z,15
2016-03-23T08:13:13.434Z,15
2016-03-23T08:14:13.390Z,15
2016-03-23T08:15:13.721Z,20
2016-03-23T08:16:13.458Z,20
2016-03-23T08:17:13.445Z,20
2016-03-23T08:18:13.526Z,20
2016-03-23T08:19:13.481Z,20
2016-03-23T08:20:13.485Z,20
2016-03-23T08:21:13.487Z,20
2016-03-23T08:22:13.506Z,25
2016-03-23T08:23:13.523Z,25
2016-03-23T08:24:13.542Z,25
2016-03-23T08:25:13.576Z,20
2016-03-23T08:26:13.531Z,20
2016-03-23T08:27:13.566Z,20
2016-03-23T08:28:13.569Z,20
2016-03-23T08:29:13.571Z,20
2016-03-23T08:30:13.668Z,20
2016-03-23T08:31:13.624Z,20
2016-03-23T08:32:13.658Z,20
2016-03-23T08:33:13.644Z,20
2016-03-23T08:34:13.647Z,20
2016-03-23T08:35:13.666Z,20
2016-03-23T08:36:13.652Z,25
2016-03-23T08:37:13.686Z,25
2016-03-23T08:38:13.720Z,25
2016-03-23T08:39:13.708Z,25
2016-03-23T08:40:13.710Z,30
2016-03-23T08:41:13.713Z,30
2016-03-23T08:42:13.716Z,30
2016-03-23T08:43:12.999Z,35
2016-03-23T08:44:13.751Z,35
2016-03-23T08:45:13.740Z,35
2016-03-23T08:46:13.804Z,40
2016-03-23T08:47:13.807Z,40
2016-03-23T08:48:13.825Z,40
2016-03-23T08:49:13.828Z,40
2016-03-23T08:50:13.690Z,40
2016-03-23T08:51:13.864Z,40
2016-03-23T08:52:13.852Z,40
2016-03-23T08:53:13.886Z,40
2016-03-23T08:54:13.888Z,40
2016-03-23T08:55:13.891Z,40
2016-03-23T08:56:13.894Z,35
2016-03-23T08:57:13.912Z,35
2016-03-23T08:58:13.774Z,30
2016-03-23T08:59:13.964Z,30
2016-03-23T09:00:14.030Z,30
2016-03-23T09:01:13.969Z,25
2016-03-23T09:02:13.989Z,25
2016-03-23T09:03:13.991Z,25
2016-03-23T09:04:13.853Z,25
2016-03-23T09:05:14.027Z,25
2016-03-23T09:06:14.061Z,25
2016-03-23T09:07:14.064Z,25
2016-03-23T09:08:14.066Z,25
2016-03-23T09:09:14.101Z,20
2016-03-23T09:10:14.087Z,20
2016-03-23T09:11:14.091Z,20
2016-03-23T09:12:14.093Z,20
2016-03-23T09:13:14.112Z,20
2016-03-23T09:14:14.114Z,20
2016-03-23T09:15:14.195Z,20
2016-03-23T09:16:14.166Z,20
2016-03-23T09:17:14.373Z,25
2016-03-23T09:18:14.171Z,25
2016-03-23T09:19:14.206Z,25
2016-03-23T09:20:14.208Z,30
2016-03-23T09:21:14.226Z,30
2016-03-23T09:22:14.261Z,30
2016-03-23T09:23:14.247Z,30
2016-03-23T09:24:14.267Z,30
2016-03-23T09:25:14.269Z,30
2016-03-23T09:26:14.271Z,30
2016-03-23T09:27:14.289Z,30
2016-03-23T09:28:14.292Z,30
2016-03-23T09:29:14.311Z,30
2016-03-23T09:30:14.328Z,30
2016-03-23T09:31:14.347Z,30
2016-03-23T09:32:14.366Z,30
2016-03-23T09:33:14.368Z,30
2016-03-23T09:34:14.387Z,30
2016-03-23T09:35:14.389Z,30
2016-03-23T09:36:14.407Z,30
2016-03-23T09:37:14.426Z,30
2016-03-23T09:38:14.429Z,30
2016-03-23T09:39:14.463Z,30
2016-03-23T09:40:14.449Z,30
2016-03-23T09:41:14.468Z,30
2016-03-23T09:42:14.471Z,30
2016-03-23T09:43:14.535Z,35
2016-03-23T09:44:14.508Z,35
2016-03-23T09:45:14.729Z,35
2016-03-23T09:46:14.529Z,35
2016-03-23T09:47:14.547Z,40
2016-03-23T09:48:14.565Z,40
2016-03-23T09:49:14.599Z,40
2016-03-23T09:50:14.601Z,40
2016-03-23T09:51:14.588Z,40
2016-03-23T09:52:14.825Z,40
2016-03-23T09:53:14.609Z,40
2016-03-23T09:54:14.628Z,40
2016-03-23T09:55:14.646Z,40
2016-03-23T09:56:14.681Z,40
2016-03-23T09:57:14.683Z,40
2016-03-23T09:58:14.685Z,40
2016-03-23T09:59:14.532Z,45
2016-03-23T10:00:14.628Z,45
2016-03-23T10:01:14.724Z,50
2016-03-23T10:02:14.758Z,50
2016-03-23T10:03:14.761Z,45
2016-03-23T10:04:14.795Z,45
2016-03-23T10:05:14.814Z,50
2016-03-23T10:06:14.800Z,50
2016-03-23T10:07:14.803Z,45
2016-03-23T10:08:14.805Z,45
2016-03-23T10:09:14.841Z,45
2016-03-23T10:10:14.827Z,45
2016-03-23T10:11:14.861Z,45
2016-03-23T10:12:15.004Z,45
2016-03-23T10:13:14.882Z,50
2016-03-23T10:14:14.885Z,50
2016-03-23T10:15:15.012Z,50
2016-03-23T10:16:14.907Z,55
2016-03-23T10:17:14.955Z,55
2016-03-23T10:18:14.957Z,50
2016-03-23T10:19:14.977Z,50
2016-03-23T10:20:14.995Z,45
2016-03-23T10:21:14.982Z,45
2016-03-23T10:22:15.000Z,40
2016-03-23T10:23:15.018Z,40
2016-03-23T10:24:15.020Z,40
2016-03-23T10:25:15.056Z,40
2016-03-23T10:26:15.073Z,40
2016-03-23T10:27:15.060Z,40
2016-03-23T10:28:15.078Z,40
2016-03-23T10:29:15.081Z,40
2016-03-23T10:30:15.240Z,40
2016-03-23T10:31:15.133Z,40
2016-03-23T10:32:15.152Z,40
2016-03-23T10:33:15.264Z,40
2016-03-23T10:34:15.172Z,35
2016-03-23T10:35:15.192Z,30
2016-03-23T10:36:15.241Z,30
2016-03-23T10:37:15.212Z,30
2016-03-23T10:38:15.261Z,30
2016-03-23T10:39:15.249Z,25
2016-03-23T10:40:15.252Z,25
2016-03-23T10:41:15.301Z,20
2016-03-23T10:42:15.272Z,20
2016-03-23T10:43:15.260Z,20
2016-03-23T10:44:15.293Z,15
2016-03-23T10:45:15.235Z,15
2016-03-23T10:46:15.330Z,15
2016-03-23T10:47:15.349Z,15
2016-03-23T10:48:15.195Z,15
2016-03-23T10:49:15.385Z,15
2016-03-23T10:50:15.372Z,15
2016-03-23T10:51:15.406Z,15
2016-03-23T10:52:15.409Z,15
2016-03-23T10:53:15.426Z,15
2016-03-23T10:54:15.383Z,15
2016-03-23T10:55:15.464Z,15
2016-03-23T10:56:15.467Z,20
2016-03-23T10:57:15.469Z,20
2016-03-23T10:58:15.487Z,20
2016-03-23T10:59:15.506Z,20
2016-03-23T11:00:15.555Z,20
2016-03-23T11:01:15.531Z,25
2016-03-23T11:02:15.566Z,25
2016-03-23T11:03:15.569Z,30
2016-03-23T11:04:15.571Z,35
2016-03-23T11:05:15.589Z,40
2016-03-23T11:06:15.607Z,40
2016-03-23T11:07:15.626Z,40
2016-03-23T11:08:15.629Z,40
2016-03-23T11:09:15.647Z,40
2016-03-23T11:10:15.649Z,40
2016-03-23T11:11:15.683Z,40
2016-03-23T11:12:15.671Z,45
2016-03-23T11:13:15.688Z,45
2016-03-23T11:14:15.691Z,45
2016-03-23T11:15:15.693Z,45
2016-03-23T11:16:15.744Z,45
2016-03-23T11:17:15.778Z,50
2016-03-23T11:18:15.592Z,50
2016-03-23T11:19:15.784Z,50
2016-03-23T11:20:15.801Z,55
2016-03-23T11:21:15.804Z,55
2016-03-23T11:22:15.807Z,60
2016-03-23T11:23:15.856Z,65
2016-03-23T11:24:16.812Z,70
2016-03-23T11:25:15.861Z,75
2016-03-23T11:26:15.865Z,75
2016-03-23T11:27:15.883Z,80
2016-03-23T11:28:15.901Z,85
2016-03-23T11:29:15.920Z,85
2016-03-23T11:30:15.984Z,90
2016-03-23T11:31:15.941Z,90
2016-03-23T11:32:15.959Z,95
2016-03-23T11:33:15.978Z,95
2016-03-23T11:34:15.980Z,100
2016-03-23T11:35:16.013Z,100
2016-03-23T11:36:16.111Z,100
2016-03-23T11:37:16.050Z,100
2016-03-23T11:38:16.038Z,100
2016-03-23T11:39:16.071Z,105
2016-03-23T11:40:16.058Z,110
2016-03-23T11:41:16.076Z,120
2016-03-23T11:42:16.080Z,120
2016-03-23T11:43:16.098Z,125
2016-03-23T11:44:16.146Z,130
2016-03-23T11:45:16.228Z,130
2016-03-23T11:46:16.152Z,130
2016-03-23T11:47:16.218Z,130
2016-03-23T11:48:16.236Z,125
2016-03-23T11:49:16.192Z,135
2016-03-23T11:50:16.195Z,130
2016-03-23T11:51:16.212Z,140
2016-03-23T11:52:16.248Z,135
2016-03-23T11:53:16.265Z,125
2016-03-23T11:54:16.253Z,120
2016-03-23T11:55:16.270Z,115
2016-03-23T11:56:16.273Z,110
2016-03-23T11:57:16.307Z,105
2016-03-23T11:58:16.153Z,105
2016-03-23T11:59:16.344Z,105
2016-03-23T12:00:16.347Z,105
2016-03-23T12:01:16.364Z,110
2016-03-23T12:02:16.384Z,115
2016-03-23T12:03:16.386Z,135
2016-03-23T12:04:16.419Z,115
2016-03-23T12:05:16.422Z,115
2016-03-23T12:06:16.441Z,115
2016-03-23T12:07:16.475Z,115
2016-03-23T12:08:16.477Z,115
2016-03-23T12:09:16.480Z,120
2016-03-23T12:10:16.498Z,120
2016-03-23T12:11:16.516Z,120
2016-03-23T12:12:16.535Z,120
2016-03-23T12:13:16.569Z,115
2016-03-23T12:14:16.556Z,110
2016-03-23T12:15:16.559Z,105
2016-03-23T12:16:16.593Z,105
2016-03-23T12:17:16.596Z,100
2016-03-23T12:18:16.613Z,100
2016-03-23T12:19:16.648Z,95
2016-03-23T12:20:16.650Z,90
2016-03-23T12:21:16.701Z,85
2016-03-23T12:22:16.687Z,80
2016-03-23T12:23:16.690Z,80
2016-03-23T12:24:16.739Z,80
2016-03-23T12:25:16.726Z,70
2016-03-23T12:26:16.604Z,70
2016-03-23T12:27:16.762Z,65
2016-03-23T12:28:16.765Z,65
2016-03-23T12:29:16.768Z,55
2016-03-23T12:30:16.802Z,50
2016-03-23T12:31:16.805Z,45
2016-03-23T12:32:16.823Z,45
2016-03-23T12:33:16.841Z,40
2016-03-23T12:34:16.860Z,35
2016-03-23T12:35:16.894Z,30
2016-03-23T12:36:16.912Z,25
2016-03-23T12:37:16.914Z,20
2016-03-23T12:38:16.933Z,20
2016-03-23T12:39:16.936Z,15
2016-03-23T12:40:16.954Z,15
2016-03-23T12:41:16.832Z,10
2016-03-23T12:42:16.834Z,10
2016-03-23T12:43:16.993Z,10
2016-03-23T12:44:17.027Z,10
2016-03-23T12:45:17.014Z,15
2016-03-23T12:46:17.110Z,15
2016-03-23T12:47:17.035Z,15
2016-03-23T12:48:17.053Z,15
2016-03-23T12:49:17.071Z,20
2016-03-23T12:50:17.121Z,20
2016-03-23T12:51:17.108Z,20
2016-03-23T12:52:17.142Z,25
2016-03-23T12:53:17.130Z,25
2016-03-23T12:54:17.148Z,25
2016-03-23T12:55:17.167Z,30
2016-03-23T12:56:17.184Z,30
2016-03-23T12:57:17.187Z,30
2016-03-23T12:58:17.236Z,35
2016-03-23T12:59:17.223Z,35
2016-03-23T13:00:17.226Z,40
2016-03-23T13:01:17.245Z,40
2016-03-23T13:02:17.263Z,40
2016-03-23T13:03:17.281Z,45
2016-03-23T13:04:17.300Z,45
2016-03-23T13:05:17.302Z,45
2016-03-23T13:06:17.321Z,45
2016-03-23T13:07:17.324Z,50
2016-03-23T13:08:17.341Z,50
2016-03-23T13:09:31.470Z,55
2016-03-23T13:10:17.378Z,55
2016-03-23T13:11:17.396Z,55
2016-03-23T13:12:17.399Z,55
2016-03-23T13:13:17.449Z,55
2016-03-23T13:14:17.436Z,55
2016-03-23T13:15:17.454Z,55
2016-03-23T13:16:17.457Z,60
2016-03-23T13:17:17.476Z,60
2016-03-23T13:18:17.478Z,60
2016-03-23T13:19:17.528Z,60
2016-03-23T13:20:17.530Z,60
2016-03-23T13:21:17.517Z,60
2016-03-23T13:22:17.552Z,60
2016-03-23T13:23:17.554Z,60
2016-03-23T13:24:17.556Z,60
2016-03-23T13:25:17.590Z,60
2016-03-23T13:26:17.593Z,60
2016-03-23T13:27:17.611Z,60
2016-03-23T13:28:17.631Z,60
2016-03-23T13:29:17.633Z,60
2016-03-23T13:30:17.667Z,60
2016-03-23T13:31:17.669Z,55
2016-03-23T13:32:17.672Z,55
2016-03-23T13:33:17.689Z,55
2016-03-23T13:34:17.724Z,55
2016-03-23T13:35:17.742Z,55
2016-03-23T13:36:17.730Z,55
2016-03-23T13:37:31.873Z,55
2016-03-23T13:38:17.766Z,55
2016-03-23T13:39:17.800Z,55
2016-03-23T13:40:17.818Z,55
2016-03-23T13:41:17.853Z,55
2016-03-23T13:42:17.871Z,55
2016-03-23T13:43:17.857Z,55
2016-03-23T13:44:17.877Z,55
2016-03-23T13:45:17.879Z,55
2016-03-23T13:46:17.897Z,55
2016-03-23T13:47:17.900Z,55
2016-03-23T13:48:17.918Z,50
2016-03-23T13:49:17.936Z,50
2016-03-23T13:50:17.955Z,50
2016-03-23T13:51:17.957Z,50
2016-03-23T13:52:17.960Z,50
2016-03-23T13:53:17.978Z,55
2016-03-23T13:54:18.012Z,55
2016-03-23T13:55:18.031Z,55
2016-03-23T13:56:18.065Z,55
2016-03-23T13:57:18.083Z,55
2016-03-23T13:58:18.070Z,60
2016-03-23T13:59:18.198Z,60
2016-03-23T14:00:18.138Z,60
2016-03-23T14:01:18.109Z,60
2016-03-23T14:02:18.174Z,70
2016-03-23T14:03:18.178Z,65
2016-03-23T14:04:18.180Z,70
2016-03-23T14:05:18.183Z,65
2016-03-23T14:06:18.201Z,65
2016-03-23T14:07:18.219Z,65
2016-03-23T14:08:18.222Z,65
2016-03-23T14:09:18.241Z,65
2016-03-23T14:10:18.243Z,65
2016-03-23T14:11:18.277Z,65
2016-03-23T14:12:18.279Z,65
2016-03-23T14:13:18.298Z,65
2016-03-23T14:14:18.316Z,65
2016-03-23T14:15:18.335Z,65
2016-03-23T14:16:18.321Z,65
2016-03-23T14:17:18.371Z,65
2016-03-23T14:18:18.390Z,65
2016-03-23T14:19:18.377Z,65
2016-03-23T14:20:18.410Z,65
2016-03-23T14:21:18.428Z,70
2016-03-23T14:22:18.410Z,70
2016-03-23T14:23:18.424Z,70
2016-03-23T14:24:18.422Z,70
2016-03-23T14:25:18.453Z,70
2016-03-23T14:26:18.435Z,75
2016-03-23T14:27:18.407Z,75